sensor_id;sensor_type;location;lat;lon;timestamp;P1;durP1;ratioP1;P2;durP2;ratioP2
45007;SDS011;30743;52.008;5.644;2023-08-17T00:01:25;3.90;;;1.08;;
45007;SDS011;30743;52.008;5.644;2023-08-17T00:03:51;2.50;;;0.90;;
45007;SDS011;30743;52.008;5.644;2023-08-17T00:06:16;3.10;;;1.13;;
45007;SDS011;30743;52.008;5.644;2023-08-17T00:08:42;2.53;;;1.20;;
45007;SDS011;30743;52.008;5.644;2023-08-17T00:11:08;1.42;;;0.90;;
45007;SDS011;30743;52.008;5.644;2023-08-17T00:13:33;3.05;;;1.00;;
45007;SDS011;30743;52.008;5.644;2023-08-17T00:15:59;2.63;;;1.00;;
45007;SDS011;30743;52.008;5.644;2023-08-17T00:18:25;2.53;;;1.05;;
45007;SDS011;30743;52.008;5.644;2023-08-17T00:20:51;2.55;;;1.08;;
45007;SDS011;30743;52.008;5.644;2023-08-17T00:23:16;2.08;;;0.98;;
45007;SDS011;30743;52.008;5.644;2023-08-17T00:25:42;4.72;;;1.73;;
45007;SDS011;30743;52.008;5.644;2023-08-17T00:28:08;2.75;;;1.45;;
45007;SDS011;30743;52.008;5.644;2023-08-17T00:30:33;5.13;;;1.45;;
45007;SDS011;30743;52.008;5.644;2023-08-17T00:33:01;1.73;;;1.00;;
45007;SDS011;30743;52.008;5.644;2023-08-17T00:35:27;3.25;;;1.05;;
45007;SDS011;30743;52.008;5.644;2023-08-17T00:37:53;2.53;;;1.00;;
45007;SDS011;30743;52.008;5.644;2023-08-17T00:40:18;3.78;;;1.08;;
45007;SDS011;30743;52.008;5.644;2023-08-17T00:42:44;13.50;;;1.52;;
45007;SDS011;30743;52.008;5.644;2023-08-17T00:45:10;4.38;;;1.38;;
45007;SDS011;30743;52.008;5.644;2023-08-17T00:47:35;3.50;;;1.27;;
45007;SDS011;30743;52.008;5.644;2023-08-17T00:50:02;3.42;;;1.10;;
45007;SDS011;30743;52.008;5.644;2023-08-17T00:52:28;3.92;;;1.13;;
45007;SDS011;30743;52.008;5.644;2023-08-17T00:54:55;3.08;;;1.25;;
45007;SDS011;30743;52.008;5.644;2023-08-17T00:57:22;3.60;;;1.00;;
45007;SDS011;30743;52.008;5.644;2023-08-17T00:59:48;2.08;;;1.35;;
45007;SDS011;30743;52.008;5.644;2023-08-17T01:02:14;2.75;;;1.20;;
45007;SDS011;30743;52.008;5.644;2023-08-17T01:04:41;3.75;;;1.60;;
45007;SDS011;30743;52.008;5.644;2023-08-17T01:07:06;3.80;;;1.30;;
45007;SDS011;30743;52.008;5.644;2023-08-17T01:09:32;8.45;;;1.48;;
45007;SDS011;30743;52.008;5.644;2023-08-17T01:12:10;4.20;;;1.67;;
45007;SDS011;30743;52.008;5.644;2023-08-17T01:14:43;3.13;;;1.30;;
45007;SDS011;30743;52.008;5.644;2023-08-17T01:17:25;3.58;;;1.20;;
45007;SDS011;30743;52.008;5.644;2023-08-17T01:19:54;4.15;;;1.30;;
45007;SDS011;30743;52.008;5.644;2023-08-17T01:22:21;3.20;;;1.20;;
45007;SDS011;30743;52.008;5.644;2023-08-17T01:24:47;4.38;;;1.20;;
45007;SDS011;30743;52.008;5.644;2023-08-17T01:27:13;3.00;;;1.40;;
45007;SDS011;30743;52.008;5.644;2023-08-17T01:29:39;3.28;;;1.15;;
45007;SDS011;30743;52.008;5.644;2023-08-17T01:32:12;3.25;;;1.58;;
45007;SDS011;30743;52.008;5.644;2023-08-17T01:34:48;3.17;;;1.52;;
45007;SDS011;30743;52.008;5.644;2023-08-17T01:37:20;3.45;;;1.30;;
45007;SDS011;30743;52.008;5.644;2023-08-17T01:39:48;1.85;;;1.10;;
45007;SDS011;30743;52.008;5.644;2023-08-17T01:42:17;1.48;;;0.90;;
45007;SDS011;30743;52.008;5.644;2023-08-17T01:44:43;3.20;;;1.20;;
45007;SDS011;30743;52.008;5.644;2023-08-17T01:47:09;3.40;;;1.40;;
45007;SDS011;30743;52.008;5.644;2023-08-17T01:49:36;4.75;;;1.20;;
45007;SDS011;30743;52.008;5.644;2023-08-17T01:52:02;4.47;;;1.42;;
45007;SDS011;30743;52.008;5.644;2023-08-17T01:54:27;8.85;;;1.08;;
45007;SDS011;30743;52.008;5.644;2023-08-17T01:56:53;2.35;;;1.17;;
45007;SDS011;30743;52.008;5.644;2023-08-17T01:59:18;4.13;;;1.50;;
45007;SDS011;30743;52.008;5.644;2023-08-17T02:01:44;3.75;;;1.30;;
45007;SDS011;30743;52.008;5.644;2023-08-17T02:04:09;3.83;;;1.17;;
45007;SDS011;30743;52.008;5.644;2023-08-17T02:06:35;6.25;;;1.25;;
45007;SDS011;30743;52.008;5.644;2023-08-17T02:09:00;2.85;;;1.10;;
45007;SDS011;30743;52.008;5.644;2023-08-17T02:11:26;2.28;;;1.05;;
45007;SDS011;30743;52.008;5.644;2023-08-17T02:13:52;3.92;;;1.10;;
45007;SDS011;30743;52.008;5.644;2023-08-17T02:16:17;4.90;;;0.82;;
45007;SDS011;30743;52.008;5.644;2023-08-17T02:18:43;2.70;;;1.30;;
45007;SDS011;30743;52.008;5.644;2023-08-17T02:21:08;3.20;;;1.02;;
45007;SDS011;30743;52.008;5.644;2023-08-17T02:23:34;4.00;;;1.48;;
45007;SDS011;30743;52.008;5.644;2023-08-17T02:26:00;2.42;;;1.30;;
45007;SDS011;30743;52.008;5.644;2023-08-17T02:28:25;2.85;;;1.20;;
45007;SDS011;30743;52.008;5.644;2023-08-17T02:30:55;2.97;;;1.10;;
45007;SDS011;30743;52.008;5.644;2023-08-17T02:33:21;2.67;;;1.00;;
45007;SDS011;30743;52.008;5.644;2023-08-17T02:35:50;5.15;;;1.30;;
45007;SDS011;30743;52.008;5.644;2023-08-17T02:38:16;4.72;;;1.30;;
45007;SDS011;30743;52.008;5.644;2023-08-17T02:40:42;5.13;;;1.70;;
45007;SDS011;30743;52.008;5.644;2023-08-17T02:43:07;2.92;;;0.93;;
45007;SDS011;30743;52.008;5.644;2023-08-17T02:45:33;7.38;;;1.27;;
45007;SDS011;30743;52.008;5.644;2023-08-17T02:47:59;3.03;;;1.10;;
45007;SDS011;30743;52.008;5.644;2023-08-17T02:50:25;3.13;;;1.15;;
45007;SDS011;30743;52.008;5.644;2023-08-17T02:52:51;1.52;;;1.00;;
45007;SDS011;30743;52.008;5.644;2023-08-17T02:55:16;2.42;;;1.17;;
45007;SDS011;30743;52.008;5.644;2023-08-17T02:57:42;2.85;;;1.30;;
45007;SDS011;30743;52.008;5.644;2023-08-17T03:00:08;2.33;;;1.13;;
45007;SDS011;30743;52.008;5.644;2023-08-17T03:02:33;4.05;;;1.10;;
45007;SDS011;30743;52.008;5.644;2023-08-17T03:04:59;3.85;;;1.10;;
45007;SDS011;30743;52.008;5.644;2023-08-17T03:07:25;5.32;;;1.23;;
45007;SDS011;30743;52.008;5.644;2023-08-17T03:09:50;4.18;;;1.25;;
45007;SDS011;30743;52.008;5.644;2023-08-17T03:12:16;4.55;;;1.10;;
45007;SDS011;30743;52.008;5.644;2023-08-17T03:14:41;4.50;;;1.27;;
45007;SDS011;30743;52.008;5.644;2023-08-17T03:17:07;2.05;;;1.17;;
45007;SDS011;30743;52.008;5.644;2023-08-17T03:19:32;3.42;;;1.10;;
45007;SDS011;30743;52.008;5.644;2023-08-17T03:21:57;3.88;;;1.27;;
45007;SDS011;30743;52.008;5.644;2023-08-17T03:24:23;1.63;;;0.90;;
45007;SDS011;30743;52.008;5.644;2023-08-17T03:26:48;5.18;;;1.20;;
45007;SDS011;30743;52.008;5.644;2023-08-17T03:29:14;3.67;;;1.05;;
45007;SDS011;30743;52.008;5.644;2023-08-17T03:31:40;4.05;;;1.00;;
45007;SDS011;30743;52.008;5.644;2023-08-17T03:34:05;5.20;;;1.23;;
45007;SDS011;30743;52.008;5.644;2023-08-17T03:36:31;3.15;;;1.00;;
45007;SDS011;30743;52.008;5.644;2023-08-17T03:38:56;5.00;;;1.23;;
45007;SDS011;30743;52.008;5.644;2023-08-17T03:41:22;2.78;;;1.00;;
45007;SDS011;30743;52.008;5.644;2023-08-17T03:43:50;2.13;;;1.13;;
45007;SDS011;30743;52.008;5.644;2023-08-17T03:46:15;4.30;;;1.30;;
45007;SDS011;30743;52.008;5.644;2023-08-17T03:48:41;3.65;;;0.82;;
45007;SDS011;30743;52.008;5.644;2023-08-17T03:51:06;2.17;;;1.08;;
45007;SDS011;30743;52.008;5.644;2023-08-17T03:53:32;4.80;;;1.10;;
45007;SDS011;30743;52.008;5.644;2023-08-17T03:55:58;4.72;;;1.00;;
45007;SDS011;30743;52.008;5.644;2023-08-17T03:58:23;3.30;;;1.65;;
45007;SDS011;30743;52.008;5.644;2023-08-17T04:00:51;3.50;;;1.55;;
45007;SDS011;30743;52.008;5.644;2023-08-17T04:03:18;3.58;;;0.90;;
45007;SDS011;30743;52.008;5.644;2023-08-17T04:05:44;4.95;;;1.30;;
45007;SDS011;30743;52.008;5.644;2023-08-17T04:08:10;2.90;;;1.10;;
45007;SDS011;30743;52.008;5.644;2023-08-17T04:10:35;2.53;;;1.15;;
45007;SDS011;30743;52.008;5.644;2023-08-17T04:13:01;6.13;;;1.33;;
45007;SDS011;30743;52.008;5.644;2023-08-17T04:15:26;4.03;;;1.10;;
45007;SDS011;30743;52.008;5.644;2023-08-17T04:17:52;2.95;;;1.30;;
45007;SDS011;30743;52.008;5.644;2023-08-17T04:20:17;3.53;;;1.30;;
45007;SDS011;30743;52.008;5.644;2023-08-17T04:22:43;3.58;;;1.00;;
45007;SDS011;30743;52.008;5.644;2023-08-17T04:25:09;4.10;;;1.30;;
45007;SDS011;30743;52.008;5.644;2023-08-17T04:27:35;4.88;;;1.20;;
45007;SDS011;30743;52.008;5.644;2023-08-17T04:30:00;4.40;;;1.60;;
45007;SDS011;30743;52.008;5.644;2023-08-17T04:32:26;2.78;;;1.10;;
45007;SDS011;30743;52.008;5.644;2023-08-17T04:34:52;3.83;;;1.02;;
45007;SDS011;30743;52.008;5.644;2023-08-17T04:37:17;4.28;;;1.23;;
45007;SDS011;30743;52.008;5.644;2023-08-17T04:39:43;4.65;;;1.33;;
45007;SDS011;30743;52.008;5.644;2023-08-17T04:42:08;2.65;;;0.98;;
45007;SDS011;30743;52.008;5.644;2023-08-17T04:44:34;5.45;;;1.27;;
45007;SDS011;30743;52.008;5.644;2023-08-17T04:47:00;3.08;;;1.30;;
45007;SDS011;30743;52.008;5.644;2023-08-17T04:49:25;4.07;;;1.33;;
45007;SDS011;30743;52.008;5.644;2023-08-17T04:51:51;4.82;;;1.25;;
45007;SDS011;30743;52.008;5.644;2023-08-17T04:54:17;3.58;;;1.17;;
45007;SDS011;30743;52.008;5.644;2023-08-17T04:56:42;2.92;;;1.33;;
45007;SDS011;30743;52.008;5.644;2023-08-17T04:59:08;3.38;;;1.08;;
45007;SDS011;30743;52.008;5.644;2023-08-17T05:01:34;3.50;;;1.20;;
45007;SDS011;30743;52.008;5.644;2023-08-17T05:04:00;2.97;;;1.35;;
45007;SDS011;30743;52.008;5.644;2023-08-17T05:06:27;3.38;;;1.25;;
45007;SDS011;30743;52.008;5.644;2023-08-17T05:08:53;5.72;;;1.30;;
45007;SDS011;30743;52.008;5.644;2023-08-17T05:11:19;2.13;;;0.80;;
45007;SDS011;30743;52.008;5.644;2023-08-17T05:13:44;5.15;;;1.20;;
45007;SDS011;30743;52.008;5.644;2023-08-17T05:16:10;2.83;;;1.30;;
45007;SDS011;30743;52.008;5.644;2023-08-17T05:18:35;5.05;;;1.20;;
45007;SDS011;30743;52.008;5.644;2023-08-17T05:21:01;2.60;;;0.98;;
45007;SDS011;30743;52.008;5.644;2023-08-17T05:23:26;7.55;;;1.40;;
45007;SDS011;30743;52.008;5.644;2023-08-17T05:25:52;5.65;;;1.48;;
45007;SDS011;30743;52.008;5.644;2023-08-17T05:28:17;5.93;;;1.27;;
45007;SDS011;30743;52.008;5.644;2023-08-17T05:30:43;4.32;;;1.00;;
45007;SDS011;30743;52.008;5.644;2023-08-17T05:33:09;7.80;;;1.45;;
45007;SDS011;30743;52.008;5.644;2023-08-17T05:35:34;4.43;;;1.00;;
45007;SDS011;30743;52.008;5.644;2023-08-17T05:38:00;5.68;;;1.30;;
45007;SDS011;30743;52.008;5.644;2023-08-17T05:40:26;7.70;;;1.50;;
45007;SDS011;30743;52.008;5.644;2023-08-17T05:42:54;4.07;;;1.50;;
45007;SDS011;30743;52.008;5.644;2023-08-17T05:45:19;3.85;;;1.48;;
45007;SDS011;30743;52.008;5.644;2023-08-17T05:47:44;6.93;;;1.30;;
45007;SDS011;30743;52.008;5.644;2023-08-17T05:50:10;6.47;;;1.05;;
45007;SDS011;30743;52.008;5.644;2023-08-17T05:52:36;3.28;;;0.90;;
45007;SDS011;30743;52.008;5.644;2023-08-17T05:55:01;2.13;;;1.30;;
45007;SDS011;30743;52.008;5.644;2023-08-17T05:57:27;3.00;;;1.25;;
45007;SDS011;30743;52.008;5.644;2023-08-17T05:59:53;3.85;;;1.20;;
45007;SDS011;30743;52.008;5.644;2023-08-17T06:02:18;3.15;;;1.27;;
45007;SDS011;30743;52.008;5.644;2023-08-17T06:04:44;4.18;;;1.20;;
45007;SDS011;30743;52.008;5.644;2023-08-17T06:07:09;4.93;;;1.30;;
45007;SDS011;30743;52.008;5.644;2023-08-17T06:09:35;3.13;;;1.13;;
45007;SDS011;30743;52.008;5.644;2023-08-17T06:12:00;2.13;;;1.30;;
45007;SDS011;30743;52.008;5.644;2023-08-17T06:14:26;4.68;;;1.40;;
45007;SDS011;30743;52.008;5.644;2023-08-17T06:16:51;3.15;;;1.00;;
45007;SDS011;30743;52.008;5.644;2023-08-17T06:19:17;6.00;;;1.45;;
45007;SDS011;30743;52.008;5.644;2023-08-17T06:21:42;3.13;;;1.20;;
45007;SDS011;30743;52.008;5.644;2023-08-17T06:24:08;3.58;;;1.00;;
45007;SDS011;30743;52.008;5.644;2023-08-17T06:26:33;5.78;;;1.30;;
45007;SDS011;30743;52.008;5.644;2023-08-17T06:28:59;1.65;;;0.82;;
45007;SDS011;30743;52.008;5.644;2023-08-17T06:31:24;6.75;;;1.50;;
45007;SDS011;30743;52.008;5.644;2023-08-17T06:33:52;4.18;;;1.42;;
45007;SDS011;30743;52.008;5.644;2023-08-17T06:36:18;2.45;;;1.30;;
45007;SDS011;30743;52.008;5.644;2023-08-17T06:38:44;6.25;;;1.20;;
45007;SDS011;30743;52.008;5.644;2023-08-17T06:41:09;2.80;;;1.00;;
45007;SDS011;30743;52.008;5.644;2023-08-17T06:43:35;7.50;;;1.42;;
45007;SDS011;30743;52.008;5.644;2023-08-17T06:46:01;2.67;;;0.82;;
45007;SDS011;30743;52.008;5.644;2023-08-17T06:48:27;3.33;;;1.00;;
45007;SDS011;30743;52.008;5.644;2023-08-17T06:50:53;4.55;;;1.15;;
45007;SDS011;30743;52.008;5.644;2023-08-17T06:53:18;3.95;;;1.10;;
45007;SDS011;30743;52.008;5.644;2023-08-17T06:55:44;3.63;;;0.90;;
45007;SDS011;30743;52.008;5.644;2023-08-17T06:58:09;5.50;;;1.40;;
45007;SDS011;30743;52.008;5.644;2023-08-17T07:00:35;2.63;;;1.00;;
45007;SDS011;30743;52.008;5.644;2023-08-17T07:03:01;3.65;;;1.25;;
45007;SDS011;30743;52.008;5.644;2023-08-17T07:05:26;1.60;;;0.93;;
45007;SDS011;30743;52.008;5.644;2023-08-17T07:07:52;3.35;;;1.70;;
45007;SDS011;30743;52.008;5.644;2023-08-17T07:10:18;2.95;;;1.00;;
45007;SDS011;30743;52.008;5.644;2023-08-17T07:12:45;7.00;;;1.48;;
45007;SDS011;30743;52.008;5.644;2023-08-17T07:15:10;4.70;;;1.30;;
45007;SDS011;30743;52.008;5.644;2023-08-17T07:17:37;2.95;;;1.38;;
45007;SDS011;30743;52.008;5.644;2023-08-17T07:20:03;3.65;;;1.17;;
45007;SDS011;30743;52.008;5.644;2023-08-17T07:22:29;4.35;;;1.38;;
45007;SDS011;30743;52.008;5.644;2023-08-17T07:24:55;5.95;;;1.38;;
45007;SDS011;30743;52.008;5.644;2023-08-17T07:27:21;5.40;;;1.23;;
45007;SDS011;30743;52.008;5.644;2023-08-17T07:29:46;4.15;;;1.50;;
45007;SDS011;30743;52.008;5.644;2023-08-17T07:32:12;2.63;;;1.10;;
45007;SDS011;30743;52.008;5.644;2023-08-17T07:34:37;5.28;;;1.30;;
45007;SDS011;30743;52.008;5.644;2023-08-17T07:37:04;4.05;;;1.27;;
45007;SDS011;30743;52.008;5.644;2023-08-17T07:39:30;3.58;;;1.17;;
45007;SDS011;30743;52.008;5.644;2023-08-17T07:41:56;3.53;;;1.30;;
45007;SDS011;30743;52.008;5.644;2023-08-17T07:44:21;1.98;;;1.08;;
45007;SDS011;30743;52.008;5.644;2023-08-17T07:46:47;3.72;;;1.40;;
45007;SDS011;30743;52.008;5.644;2023-08-17T07:49:12;3.40;;;1.20;;
45007;SDS011;30743;52.008;5.644;2023-08-17T07:51:38;2.88;;;1.30;;
45007;SDS011;30743;52.008;5.644;2023-08-17T07:54:03;4.10;;;1.10;;
45007;SDS011;30743;52.008;5.644;2023-08-17T07:56:29;3.53;;;1.27;;
45007;SDS011;30743;52.008;5.644;2023-08-17T07:58:54;4.25;;;1.58;;
45007;SDS011;30743;52.008;5.644;2023-08-17T08:01:20;4.45;;;1.67;;
45007;SDS011;30743;52.008;5.644;2023-08-17T08:03:46;5.22;;;1.77;;
45007;SDS011;30743;52.008;5.644;2023-08-17T08:06:11;3.25;;;1.45;;
45007;SDS011;30743;52.008;5.644;2023-08-17T08:08:37;3.70;;;1.30;;
45007;SDS011;30743;52.008;5.644;2023-08-17T08:11:03;3.40;;;1.30;;
45007;SDS011;30743;52.008;5.644;2023-08-17T08:13:29;5.47;;;1.38;;
45007;SDS011;30743;52.008;5.644;2023-08-17T08:15:55;2.38;;;1.23;;
45007;SDS011;30743;52.008;5.644;2023-08-17T08:18:20;4.30;;;1.30;;
45007;SDS011;30743;52.008;5.644;2023-08-17T08:20:46;5.95;;;1.73;;
45007;SDS011;30743;52.008;5.644;2023-08-17T08:23:12;3.67;;;1.40;;
45007;SDS011;30743;52.008;5.644;2023-08-17T08:25:38;2.40;;;1.42;;
45007;SDS011;30743;52.008;5.644;2023-08-17T08:28:04;6.00;;;1.83;;
45007;SDS011;30743;52.008;5.644;2023-08-17T08:30:30;3.05;;;1.10;;
45007;SDS011;30743;52.008;5.644;2023-08-17T08:32:55;4.15;;;1.60;;
45007;SDS011;30743;52.008;5.644;2023-08-17T08:35:23;5.13;;;1.67;;
45007;SDS011;30743;52.008;5.644;2023-08-17T08:37:49;4.00;;;1.70;;
45007;SDS011;30743;52.008;5.644;2023-08-17T08:40:15;3.17;;;1.25;;
45007;SDS011;30743;52.008;5.644;2023-08-17T08:42:42;5.35;;;1.77;;
45007;SDS011;30743;52.008;5.644;2023-08-17T08:45:08;5.78;;;1.90;;
45007;SDS011;30743;52.008;5.644;2023-08-17T08:47:35;3.88;;;1.40;;
45007;SDS011;30743;52.008;5.644;2023-08-17T08:50:02;4.95;;;1.60;;
45007;SDS011;30743;52.008;5.644;2023-08-17T08:52:32;2.40;;;1.38;;
45007;SDS011;30743;52.008;5.644;2023-08-17T08:55:01;7.00;;;1.60;;
45007;SDS011;30743;52.008;5.644;2023-08-17T08:57:40;4.60;;;1.55;;
45007;SDS011;30743;52.008;5.644;2023-08-17T09:00:07;3.53;;;1.50;;
45007;SDS011;30743;52.008;5.644;2023-08-17T09:02:34;4.07;;;1.80;;
45007;SDS011;30743;52.008;5.644;2023-08-17T09:05:00;7.00;;;1.65;;
45007;SDS011;30743;52.008;5.644;2023-08-17T09:07:28;4.25;;;1.40;;
45007;SDS011;30743;52.008;5.644;2023-08-17T09:09:54;3.97;;;1.88;;
45007;SDS011;30743;52.008;5.644;2023-08-17T09:12:21;11.52;;;2.40;;
45007;SDS011;30743;52.008;5.644;2023-08-17T09:14:47;6.50;;;1.90;;
45007;SDS011;30743;52.008;5.644;2023-08-17T09:17:13;6.00;;;2.22;;
45007;SDS011;30743;52.008;5.644;2023-08-17T09:19:38;3.03;;;1.73;;
45007;SDS011;30743;52.008;5.644;2023-08-17T09:22:04;4.47;;;2.00;;
45007;SDS011;30743;52.008;5.644;2023-08-17T09:24:36;6.22;;;2.10;;
45007;SDS011;30743;52.008;5.644;2023-08-17T09:27:02;7.93;;;2.40;;
45007;SDS011;30743;52.008;5.644;2023-08-17T09:29:28;5.75;;;2.42;;
45007;SDS011;30743;52.008;5.644;2023-08-17T09:31:58;3.17;;;1.63;;
45007;SDS011;30743;52.008;5.644;2023-08-17T09:34:30;8.68;;;2.55;;
45007;SDS011;30743;52.008;5.644;2023-08-17T09:36:57;4.80;;;1.95;;
45007;SDS011;30743;52.008;5.644;2023-08-17T09:39:27;5.30;;;2.00;;
45007;SDS011;30743;52.008;5.644;2023-08-17T09:41:53;5.20;;;1.80;;
45007;SDS011;30743;52.008;5.644;2023-08-17T09:44:20;6.35;;;2.28;;
45007;SDS011;30743;52.008;5.644;2023-08-17T09:46:46;5.30;;;2.50;;
45007;SDS011;30743;52.008;5.644;2023-08-17T09:49:12;4.25;;;2.28;;
45007;SDS011;30743;52.008;5.644;2023-08-17T09:51:37;3.70;;;2.10;;
45007;SDS011;30743;52.008;5.644;2023-08-17T09:54:06;3.90;;;1.95;;
45007;SDS011;30743;52.008;5.644;2023-08-17T09:56:32;4.50;;;1.95;;
45007;SDS011;30743;52.008;5.644;2023-08-17T09:58:58;5.35;;;1.98;;
45007;SDS011;30743;52.008;5.644;2023-08-17T10:01:23;6.18;;;2.30;;
45007;SDS011;30743;52.008;5.644;2023-08-17T10:03:50;7.00;;;2.28;;
45007;SDS011;30743;52.008;5.644;2023-08-17T10:06:17;4.50;;;2.03;;
45007;SDS011;30743;52.008;5.644;2023-08-17T10:08:49;5.93;;;2.50;;
45007;SDS011;30743;52.008;5.644;2023-08-17T10:11:19;9.88;;;3.30;;
45007;SDS011;30743;52.008;5.644;2023-08-17T10:14:02;4.93;;;2.38;;
45007;SDS011;30743;52.008;5.644;2023-08-17T10:16:36;4.95;;;2.53;;
45007;SDS011;30743;52.008;5.644;2023-08-17T10:19:24;5.60;;;2.47;;
45007;SDS011;30743;52.008;5.644;2023-08-17T10:24:58;4.75;;;2.45;;
45007;SDS011;30743;52.008;5.644;2023-08-17T10:27:26;6.72;;;2.63;;
45007;SDS011;30743;52.008;5.644;2023-08-17T10:29:52;4.90;;;2.40;;
45007;SDS011;30743;52.008;5.644;2023-08-17T10:32:17;5.80;;;2.47;;
45007;SDS011;30743;52.008;5.644;2023-08-17T10:34:46;4.75;;;2.47;;
45007;SDS011;30743;52.008;5.644;2023-08-17T10:37:12;5.35;;;2.40;;
45007;SDS011;30743;52.008;5.644;2023-08-17T10:39:49;4.82;;;2.65;;
45007;SDS011;30743;52.008;5.644;2023-08-17T10:42:15;7.20;;;2.67;;
45007;SDS011;30743;52.008;5.644;2023-08-17T10:44:54;7.85;;;3.00;;
45007;SDS011;30743;52.008;5.644;2023-08-17T10:47:29;5.20;;;2.22;;
45007;SDS011;30743;52.008;5.644;2023-08-17T10:50:07;9.27;;;2.35;;
45007;SDS011;30743;52.008;5.644;2023-08-17T10:52:48;6.93;;;2.75;;
45007;SDS011;30743;52.008;5.644;2023-08-17T10:55:14;4.78;;;2.80;;
45007;SDS011;30743;52.008;5.644;2023-08-17T10:57:43;4.95;;;2.00;;
45007;SDS011;30743;52.008;5.644;2023-08-17T11:00:19;5.13;;;2.47;;
45007;SDS011;30743;52.008;5.644;2023-08-17T11:02:56;4.82;;;2.50;;
45007;SDS011;30743;52.008;5.644;2023-08-17T11:05:35;7.18;;;2.42;;
45007;SDS011;30743;52.008;5.644;2023-08-17T11:08:06;5.03;;;2.42;;
45007;SDS011;30743;52.008;5.644;2023-08-17T11:10:36;5.18;;;2.42;;
45007;SDS011;30743;52.008;5.644;2023-08-17T11:13:03;4.93;;;2.72;;
45007;SDS011;30743;52.008;5.644;2023-08-17T11:18:07;6.50;;;2.90;;
45007;SDS011;30743;52.008;5.644;2023-08-17T11:20:34;3.83;;;2.38;;
45007;SDS011;30743;52.008;5.644;2023-08-17T11:23:02;6.00;;;2.33;;
45007;SDS011;30743;52.008;5.644;2023-08-17T11:25:28;5.63;;;2.50;;
45007;SDS011;30743;52.008;5.644;2023-08-17T11:27:54;4.90;;;2.40;;
45007;SDS011;30743;52.008;5.644;2023-08-17T11:30:20;5.18;;;2.45;;
45007;SDS011;30743;52.008;5.644;2023-08-17T11:32:48;4.13;;;2.55;;
45007;SDS011;30743;52.008;5.644;2023-08-17T11:35:15;5.72;;;2.17;;
45007;SDS011;30743;52.008;5.644;2023-08-17T11:37:40;5.88;;;2.60;;
45007;SDS011;30743;52.008;5.644;2023-08-17T11:40:06;5.38;;;2.70;;
45007;SDS011;30743;52.008;5.644;2023-08-17T11:42:34;5.60;;;2.60;;
45007;SDS011;30743;52.008;5.644;2023-08-17T11:45:01;4.95;;;2.63;;
45007;SDS011;30743;52.008;5.644;2023-08-17T11:47:27;5.45;;;2.60;;
45007;SDS011;30743;52.008;5.644;2023-08-17T11:49:58;6.95;;;2.45;;
45007;SDS011;30743;52.008;5.644;2023-08-17T11:52:25;7.35;;;2.60;;
45007;SDS011;30743;52.008;5.644;2023-08-17T11:54:54;5.25;;;2.60;;
45007;SDS011;30743;52.008;5.644;2023-08-17T11:57:21;6.35;;;2.67;;
45007;SDS011;30743;52.008;5.644;2023-08-17T11:59:46;4.72;;;2.60;;
45007;SDS011;30743;52.008;5.644;2023-08-17T12:02:12;9.40;;;3.00;;
45007;SDS011;30743;52.008;5.644;2023-08-17T12:04:37;7.40;;;2.97;;
45007;SDS011;30743;52.008;5.644;2023-08-17T12:07:03;7.07;;;2.88;;
45007;SDS011;30743;52.008;5.644;2023-08-17T12:09:31;5.60;;;2.70;;
45007;SDS011;30743;52.008;5.644;2023-08-17T12:11:58;5.10;;;2.40;;
45007;SDS011;30743;52.008;5.644;2023-08-17T12:14:25;5.70;;;2.72;;
45007;SDS011;30743;52.008;5.644;2023-08-17T12:16:54;6.00;;;2.60;;
45007;SDS011;30743;52.008;5.644;2023-08-17T12:19:20;4.47;;;2.67;;
45007;SDS011;30743;52.008;5.644;2023-08-17T12:21:47;6.82;;;2.47;;
45007;SDS011;30743;52.008;5.644;2023-08-17T12:24:13;4.07;;;2.30;;
45007;SDS011;30743;52.008;5.644;2023-08-17T12:26:45;6.03;;;2.30;;
45007;SDS011;30743;52.008;5.644;2023-08-17T12:29:12;6.80;;;2.30;;
45007;SDS011;30743;52.008;5.644;2023-08-17T12:31:38;4.68;;;1.98;;
45007;SDS011;30743;52.008;5.644;2023-08-17T12:34:04;4.00;;;2.13;;
45007;SDS011;30743;52.008;5.644;2023-08-17T12:36:31;3.38;;;2.22;;
45007;SDS011;30743;52.008;5.644;2023-08-17T12:39:00;3.55;;;2.25;;
45007;SDS011;30743;52.008;5.644;2023-08-17T12:41:26;3.72;;;2.45;;
45007;SDS011;30743;52.008;5.644;2023-08-17T12:43:51;6.55;;;2.65;;
45007;SDS011;30743;52.008;5.644;2023-08-17T12:46:19;4.30;;;2.20;;
45007;SDS011;30743;52.008;5.644;2023-08-17T12:48:44;5.18;;;2.47;;
45007;SDS011;30743;52.008;5.644;2023-08-17T12:51:10;4.55;;;2.33;;
45007;SDS011;30743;52.008;5.644;2023-08-17T12:53:35;4.15;;;2.00;;
45007;SDS011;30743;52.008;5.644;2023-08-17T12:56:01;4.53;;;2.10;;
45007;SDS011;30743;52.008;5.644;2023-08-17T12:58:27;2.83;;;2.00;;
45007;SDS011;30743;52.008;5.644;2023-08-17T13:00:52;5.20;;;2.28;;
45007;SDS011;30743;52.008;5.644;2023-08-17T13:03:19;4.47;;;1.90;;
45007;SDS011;30743;52.008;5.644;2023-08-17T13:05:45;2.90;;;2.10;;
45007;SDS011;30743;52.008;5.644;2023-08-17T13:08:11;3.40;;;2.50;;
45007;SDS011;30743;52.008;5.644;2023-08-17T13:10:36;4.38;;;2.50;;
45007;SDS011;30743;52.008;5.644;2023-08-17T13:13:02;4.60;;;2.40;;
45007;SDS011;30743;52.008;5.644;2023-08-17T13:15:28;4.53;;;2.75;;
45007;SDS011;30743;52.008;5.644;2023-08-17T13:17:54;6.63;;;2.78;;
45007;SDS011;30743;52.008;5.644;2023-08-17T13:20:19;5.40;;;2.50;;
45007;SDS011;30743;52.008;5.644;2023-08-17T13:22:45;4.10;;;2.15;;
45007;SDS011;30743;52.008;5.644;2023-08-17T13:25:11;5.03;;;2.67;;
45007;SDS011;30743;52.008;5.644;2023-08-17T13:27:37;5.78;;;2.60;;
45007;SDS011;30743;52.008;5.644;2023-08-17T13:30:03;4.35;;;2.40;;
45007;SDS011;30743;52.008;5.644;2023-08-17T13:32:29;5.80;;;2.33;;
45007;SDS011;30743;52.008;5.644;2023-08-17T13:34:54;3.22;;;2.15;;
45007;SDS011;30743;52.008;5.644;2023-08-17T13:37:21;3.95;;;2.78;;
45007;SDS011;30743;52.008;5.644;2023-08-17T13:39:47;3.05;;;2.38;;
45007;SDS011;30743;52.008;5.644;2023-08-17T13:42:12;3.10;;;2.38;;
45007;SDS011;30743;52.008;5.644;2023-08-17T13:44:38;4.00;;;2.63;;
45007;SDS011;30743;52.008;5.644;2023-08-17T13:47:04;4.63;;;2.47;;
45007;SDS011;30743;52.008;5.644;2023-08-17T13:49:29;5.93;;;2.85;;
45007;SDS011;30743;52.008;5.644;2023-08-17T13:51:55;3.60;;;2.67;;
45007;SDS011;30743;52.008;5.644;2023-08-17T13:54:23;3.80;;;3.30;;
45007;SDS011;30743;52.008;5.644;2023-08-17T13:56:49;5.15;;;3.10;;
45007;SDS011;30743;52.008;5.644;2023-08-17T13:59:15;3.97;;;2.90;;
45007;SDS011;30743;52.008;5.644;2023-08-17T14:01:40;5.13;;;3.20;;
45007;SDS011;30743;52.008;5.644;2023-08-17T14:04:06;5.97;;;3.42;;
45007;SDS011;30743;52.008;5.644;2023-08-17T14:06:36;5.35;;;2.78;;
45007;SDS011;30743;52.008;5.644;2023-08-17T14:09:02;4.57;;;3.05;;
45007;SDS011;30743;52.008;5.644;2023-08-17T14:11:28;4.72;;;2.88;;
45007;SDS011;30743;52.008;5.644;2023-08-17T14:13:53;5.85;;;3.00;;
45007;SDS011;30743;52.008;5.644;2023-08-17T14:16:19;3.85;;;2.58;;
45007;SDS011;30743;52.008;5.644;2023-08-17T14:18:44;4.68;;;3.10;;
45007;SDS011;30743;52.008;5.644;2023-08-17T14:21:10;3.65;;;2.67;;
45007;SDS011;30743;52.008;5.644;2023-08-17T14:23:35;3.80;;;2.53;;
45007;SDS011;30743;52.008;5.644;2023-08-17T14:26:02;4.95;;;2.70;;
45007;SDS011;30743;52.008;5.644;2023-08-17T14:28:28;4.43;;;3.10;;
45007;SDS011;30743;52.008;5.644;2023-08-17T14:30:53;4.82;;;2.97;;
45007;SDS011;30743;52.008;5.644;2023-08-17T14:33:19;5.60;;;3.22;;
45007;SDS011;30743;52.008;5.644;2023-08-17T14:35:44;4.28;;;2.92;;
45007;SDS011;30743;52.008;5.644;2023-08-17T14:38:10;5.90;;;2.80;;
45007;SDS011;30743;52.008;5.644;2023-08-17T14:40:38;5.03;;;3.28;;
45007;SDS011;30743;52.008;5.644;2023-08-17T14:43:07;3.88;;;2.90;;
45007;SDS011;30743;52.008;5.644;2023-08-17T14:45:34;4.50;;;2.97;;
45007;SDS011;30743;52.008;5.644;2023-08-17T14:47:59;4.75;;;3.05;;
45007;SDS011;30743;52.008;5.644;2023-08-17T14:50:25;4.50;;;2.63;;